Time;durP1;ratioP1;P1;durP2;ratioP2;P2;SDS_P1;SDS_P2;PMS_P1;PMS_P2;Temp;Humidity;BMP_temperature;BMP_pressure;BME280_temperature;BME280_humidity;BME280_pressure;Samples;Min_cycle;Max_cycle;Signal;HPM_P1;HPM_P2
2023/06/11 00:00:33;;;;;;;12.10;8.30;;;;;;;18.32;83.96;97072.09;10247335;28;20145;-51
2023/06/11 00:05:32;;;;;;;12.98;8.50;;;;;;;18.42;83.63;97089.16;10246229;28;20037;-51
2023/06/11 00:10:31;;;;;;;12.60;9.85;;;;;;;18.45;84.10;97089.03;10245599;28;20038;-51
2023/06/11 00:15:30;;;;;;;18.23;10.90;;;;;;;18.39;84.60;97070.94;10245970;28;20046;-48
2023/06/11 00:20:29;;;;;;;17.98;11.65;;;;;;;18.43;84.58;97072.47;10245478;28;20038;-49
2023/06/11 00:25:28;;;;;;;15.98;12.30;;;;;;;18.45;84.76;97080.31;10246658;28;20129;-51
2023/06/11 00:30:29;;;;;;;14.00;12.00;;;;;;;18.43;84.20;97077.72;10244530;28;20121;-50
2023/06/11 00:35:28;;;;;;;14.30;11.45;;;;;;;18.50;84.12;97076.56;10245397;28;20133;-51
2023/06/11 00:40:27;;;;;;;13.93;12.10;;;;;;;18.56;84.06;97078.91;10244779;28;20124;-51
2023/06/11 00:45:27;;;;;;;15.65;11.80;;;;;;;18.53;84.18;97067.69;10247464;28;20034;-51
2023/06/11 00:50:28;;;;;;;14.82;10.70;;;;;;;18.55;84.38;97074.59;10248509;28;20085;-51
2023/06/11 00:55:27;;;;;;;12.32;9.60;;;;;;;18.40;85.44;97083.97;10248486;28;20532;-51
2023/06/11 01:00:27;;;;;;;13.00;9.60;;;;;;;18.30;86.37;97072.16;10247891;28;20085;-49
2023/06/11 01:05:31;;;;;;;12.38;9.82;;;;;;;18.26;86.77;97086.34;10248541;28;20085;-50
2023/06/11 01:10:31;;;;;;;14.05;10.35;;;;;;;18.23;86.40;97075.13;10247770;28;20062;-49
2023/06/11 01:15:30;;;;;;;16.38;9.80;;;;;;;17.97;85.79;97042.94;10247018;28;20074;-50
2023/06/11 01:20:44;;;;;;;13.65;9.27;;;;;;;18.08;86.29;97093.25;10246924;28;20105;-48
2023/06/11 01:25:56;;;;;;;13.30;9.65;;;;;;;18.17;85.60;97092.84;10247830;28;20505;-50
2023/06/11 01:31:00;;;;;;;14.00;9.75;;;;;;;18.24;85.33;97087.31;10246518;28;20054;-50
2023/06/11 01:35:59;;;;;;;15.02;9.57;;;;;;;18.31;85.26;97096.66;10247835;28;20554;-49
2023/06/11 01:40:58;;;;;;;14.80;10.32;;;;;;;18.32;85.01;97086.09;10246834;28;20463;-49
2023/06/11 01:45:58;;;;;;;14.45;9.48;;;;;;;18.31;84.78;97081.75;10243461;28;20070;-49
2023/06/11 01:50:57;;;;;;;14.07;10.18;;;;;;;18.24;84.74;97080.28;10243036;28;20074;-51
2023/06/11 01:55:56;;;;;;;13.02;9.13;;;;;;;18.22;85.23;97084.75;10243655;28;20129;-50
2023/06/11 02:00:55;;;;;;;15.20;9.75;;;;;;;18.08;85.54;97090.63;10242798;28;20034;-50
2023/06/11 02:05:54;;;;;;;13.32;9.10;;;;;;;17.87;86.86;97094.09;10244528;28;20141;-49
2023/06/11 02:10:53;;;;;;;13.07;9.15;;;;;;;17.86;86.94;97095.88;10250860;28;20057;-48
2023/06/11 02:15:52;;;;;;;15.98;8.77;;;;;;;17.95;86.39;97107.78;10250590;28;20121;-48
2023/06/11 02:20:51;;;;;;;12.73;8.88;;;;;;;17.93;86.05;97101.72;10250032;28;20429;-50
2023/06/11 02:25:50;;;;;;;13.35;8.85;;;;;;;17.97;85.86;97101.56;10250290;28;20098;-48
2023/06/11 02:30:49;;;;;;;12.30;9.18;;;;;;;18.01;85.89;97106.66;10249552;28;20521;-49
2023/06/11 02:35:48;;;;;;;14.52;9.32;;;;;;;18.00;87.12;97108.44;10250283;28;20493;-50
2023/06/11 02:40:47;;;;;;;14.90;10.13;;;;;;;17.97;87.64;97116.44;10249422;28;20104;-51
2023/06/11 02:45:46;;;;;;;12.75;10.30;;;;;;;17.83;88.04;97108.28;10249325;28;20137;-50
2023/06/11 02:50:45;;;;;;;16.38;9.57;;;;;;;17.84;88.30;97113.47;10248356;28;20129;-49
2023/06/11 02:55:44;;;;;;;14.77;9.32;;;;;;;17.85;88.29;97114.34;10249116;28;20125;-51
2023/06/11 03:00:44;;;;;;;12.35;9.75;;;;;;;17.88;88.20;97111.56;10248767;28;20041;-50
2023/06/11 03:05:43;;;;;;;15.90;9.35;;;;;;;17.90;87.82;97109.75;10249386;28;20073;-50
2023/06/11 03:10:42;;;;;;;11.73;8.98;;;;;;;17.92;87.51;97115.78;10246883;28;20035;-51
2023/06/11 03:15:41;;;;;;;13.15;9.45;;;;;;;17.92;87.22;97126.28;10248064;28;20046;-51
2023/06/11 03:20:40;;;;;;;16.13;9.30;;;;;;;18.00;86.95;97133.84;10247288;28;20045;-50
2023/06/11 03:25:39;;;;;;;16.77;9.82;;;;;;;18.06;86.68;97131.84;10247660;28;20038;-51
2023/06/11 03:30:38;;;;;;;14.07;10.00;;;;;;;18.00;86.70;97137.31;10247140;28;20533;-50
2023/06/11 03:35:37;;;;;;;14.10;9.25;;;;;;;17.65;86.34;97092.31;10247884;28;20496;-50
2023/06/11 03:40:36;;;;;;;16.80;9.15;;;;;;;17.92;86.39;97147.28;10246845;28;20537;-50
2023/06/11 03:45:35;;;;;;;13.98;8.57;;;;;;;17.95;86.30;97149.78;10250939;28;20409;-49
2023/06/11 03:50:34;;;;;;;12.80;8.73;;;;;;;17.98;86.07;97150.50;10250440;28;20082;-50
2023/06/11 03:55:33;;;;;;;12.13;8.13;;;;;;;17.90;86.38;97147.34;10249797;28;20038;-50
2023/06/11 04:00:32;;;;;;;12.52;8.07;;;;;;;18.01;86.06;97152.16;10249778;28;20041;-51
2023/06/11 04:05:37;;;;;;;10.82;8.57;;;;;;;18.23;85.82;97154.75;10249872;28;20074;-50
2023/06/11 04:10:36;;;;;;;14.88;9.02;;;;;;;18.46;84.78;97161.69;10248763;28;20073;-50
2023/06/11 04:15:35;;;;;;;13.77;8.52;;;;;;;18.53;83.91;97163.13;10249759;28;20042;-50
2023/06/11 04:20:34;;;;;;;12.18;8.68;;;;;;;18.67;83.51;97145.94;10249349;28;20125;-51
2023/06/11 04:25:33;;;;;;;11.95;9.23;;;;;;;18.92;83.06;97150.97;10249574;28;20070;-51
2023/06/11 04:30:33;;;;;;;14.63;8.55;;;;;;;19.07;83.07;97152.94;10248525;28;20497;-48
2023/06/11 04:35:34;;;;;;;14.23;9.88;;;;;;;19.33;82.90;97150.91;10249187;28;20089;-50
2023/06/11 04:40:34;;;;;;;13.52;9.68;;;;;;;19.45;82.08;97138.03;10248494;28;20074;-51
2023/06/11 04:45:34;;;;;;;21.85;10.88;;;;;;;19.57;81.62;97141.03;10245348;28;20492;-49
2023/06/11 04:50:36;;;;;;;14.32;9.90;;;;;;;19.65;80.94;97138.94;10244501;28;20086;-51
2023/06/11 04:55:38;;;;;;;17.05;10.25;;;;;;;19.81;79.79;97137.28;10243921;28;20511;-51
2023/06/11 05:00:37;;;;;;;14.77;10.05;;;;;;;19.98;79.64;97144.34;10245302;28;20073;-51
2023/06/11 05:05:36;;;;;;;15.05;10.32;;;;;;;20.19;78.74;97139.81;10244042;28;20189;-49
2023/06/11 05:10:37;;;;;;;14.90;9.40;;;;;;;20.32;76.75;97136.56;10244126;28;20109;-51
2023/06/11 05:15:36;;;;;;;17.38;10.55;;;;;;;20.43;76.40;97136.91;10244846;28;20130;-50
2023/06/11 05:20:35;;;;;;;13.82;9.90;;;;;;;20.45;75.78;97120.06;10243759;28;20042;-52
2023/06/11 05:25:35;;;;;;;14.50;11.43;;;;;;;20.65;75.50;97139.28;10265476;28;20132;-52
2023/06/11 05:30:36;;;;;;;16.83;12.63;;;;;;;20.87;74.88;97150.44;10250315;28;20073;-50
2023/06/11 05:35:35;;;;;;;13.13;10.70;;;;;;;21.06;74.04;97152.13;10241674;28;20066;-49
2023/06/11 05:40:36;;;;;;;15.75;12.50;;;;;;;20.62;73.55;97098.13;10245505;28;20054;-52
2023/06/11 05:45:35;;;;;;;16.15;11.93;;;;;;;21.16;73.31;97145.41;10250346;28;20077;-52
2023/06/11 05:50:34;;;;;;;10.63;9.23;;;;;;;21.30;71.80;97149.97;10250739;28;20078;-51
2023/06/11 05:55:33;;;;;;;14.27;9.15;;;;;;;21.37;70.26;97156.63;10251999;28;20494;-51
2023/06/11 06:00:32;;;;;;;11.10;8.65;;;;;;;21.53;67.48;97141.66;10251784;28;20070;-53
2023/06/11 06:05:31;;;;;;;12.55;9.20;;;;;;;21.81;67.20;97155.13;10250213;28;20032;-51
2023/06/11 06:10:30;;;;;;;15.38;9.10;;;;;;;22.12;65.81;97164.84;10247044;28;20423;-50
2023/06/11 06:15:30;;;;;;;11.88;8.90;;;;;;;22.35;64.67;97161.72;10250332;28;20150;-52
2023/06/11 06:20:28;;;;;;;12.00;8.23;;;;;;;22.43;65.04;97169.19;10250697;28;20530;-50
2023/06/11 06:25:27;;;;;;;15.23;9.02;;;;;;;22.70;62.26;97160.59;10249061;28;20497;-50
2023/06/11 06:30:26;;;;;;;11.10;8.30;;;;;;;22.98;62.01;97151.91;10250644;28;20429;-50
2023/06/11 06:35:26;;;;;;;13.13;8.40;;;;;;;23.28;60.84;97158.88;10249614;28;20122;-50
2023/06/11 06:40:25;;;;;;;10.88;8.32;;;;;;;23.70;61.27;97147.44;10249670;28;20136;-51
2023/06/11 06:45:23;;;;;;;9.70;7.88;;;;;;;24.01;57.03;97148.97;10250191;28;20151;-50
2023/06/11 06:50:22;;;;;;;12.43;8.60;;;;;;;24.28;57.78;97153.41;10251805;28;20146;-51
2023/06/11 06:55:21;;;;;;;13.05;8.45;;;;;;;24.22;56.51;97151.19;10249876;28;20053;-52
2023/06/11 07:00:20;;;;;;;11.98;8.30;;;;;;;24.35;55.66;97161.81;10252118;28;20041;-53
2023/06/11 07:05:19;;;;;;;13.95;8.57;;;;;;;24.11;56.37;97157.16;10251301;28;20027;-50
2023/06/11 07:10:19;;;;;;;12.52;7.85;;;;;;;23.68;56.68;97153.75;10250012;28;20042;-52
2023/06/11 07:15:18;;;;;;;9.85;7.43;;;;;;;23.45;56.32;97145.44;10248246;28;20234;-52
2023/06/11 07:20:16;;;;;;;11.13;7.97;;;;;;;23.21;57.52;97147.84;10248002;28;20054;-52
2023/06/11 07:25:16;;;;;;;10.02;6.30;;;;;;;23.00;56.58;97134.13;10249671;28;20077;-50
2023/06/11 07:30:15;;;;;;;8.52;6.78;;;;;;;23.31;57.14;97135.72;10252910;28;20081;-51
2023/06/11 07:35:14;;;;;;;9.27;6.95;;;;;;;23.33;52.91;97143.59;10249860;28;20133;-50
2023/06/11 07:40:14;;;;;;;13.57;7.60;;;;;;;23.55;54.24;97146.59;10251237;28;20501;-51
2023/06/11 07:45:13;;;;;;;8.32;6.25;;;;;;;23.45;54.24;97132.22;10247354;28;20049;-51
2023/06/11 07:50:12;;;;;;;10.00;7.43;;;;;;;23.34;54.33;97134.69;10246684;28;20125;-52
2023/06/11 07:55:12;;;;;;;9.55;7.13;;;;;;;23.04;54.67;97132.13;10245673;28;20040;-51
2023/06/11 08:00:12;;;;;;;10.00;7.65;;;;;;;23.25;55.87;97125.50;10246326;28;20077;-51
2023/06/11 08:05:17;;;;;;;9.68;7.20;;;;;;;23.13;55.21;97142.16;10245890;28;20117;-51
2023/06/11 08:10:16;;;;;;;8.55;6.75;;;;;;;23.19;55.96;97126.75;10244844;28;20125;-51
2023/06/11 08:15:15;;;;;;;12.18;8.35;;;;;;;23.38;57.16;97125.59;10245861;28;20160;-51
2023/06/11 08:20:16;;;;;;;9.88;7.93;;;;;;;23.86;56.15;97120.78;10245687;28;20137;-49
2023/06/11 08:25:15;;;;;;;8.82;7.07;;;;;;;23.94;54.95;97110.56;10258071;28;20623;-52
2023/06/11 08:30:14;;;;;;;8.57;7.47;;;;;;;24.30;54.22;97114.41;10244367;28;20074;-52
2023/06/11 08:35:13;;;;;;;8.85;7.22;;;;;;;24.34;54.75;97113.25;10244850;28;20125;-52
2023/06/11 08:40:12;;;;;;;9.40;7.10;;;;;;;24.63;54.79;97105.13;10245406;28;20121;-52
2023/06/11 08:45:11;;;;;;;10.32;7.32;;;;;;;24.03;53.72;97064.91;10244111;28;20076;-53
2023/06/11 08:50:10;;;;;;;9.27;7.00;;;;;;;24.70;55.32;97111.69;10244151;28;20052;-53
2023/06/11 08:55:09;;;;;;;8.25;6.90;;;;;;;24.97;53.08;97116.94;10244193;28;20569;-50
2023/06/11 09:00:12;;;;;;;11.43;7.20;;;;;;;25.03;54.20;97113.00;10241172;28;20481;-52
2023/06/11 09:05:11;;;;;;;12.95;8.52;;;;;;;24.93;52.48;97111.97;10241624;28;20133;-53
2023/06/11 09:10:10;;;;;;;10.43;7.00;;;;;;;25.18;54.33;97095.19;10242112;28;20073;-52
2023/06/11 09:15:11;;;;;;;9.57;7.20;;;;;;;25.21;52.28;97090.47;10243714;28;20120;-52
2023/06/11 09:20:11;;;;;;;10.23;7.40;;;;;;;25.61;52.88;97086.81;10242024;28;20153;-52
2023/06/11 09:25:19;;;;;;;9.27;5.70;;;;;;;25.91;51.37;97073.06;10243573;28;20081;-51
2023/06/11 09:30:19;;;;;;;9.50;7.55;;;;;;;25.90;50.43;97074.91;10244115;28;20149;-51
2023/06/11 09:35:20;;;;;;;43.15;34.83;;;;;;;25.76;50.89;97066.22;10241722;28;20133;-52
2023/06/11 09:40:20;;;;;;;11.82;7.15;;;;;;;26.03;49.88;97064.19;10241341;28;20109;-52
2023/06/11 09:45:21;;;;;;;8.65;7.00;;;;;;;26.26;48.59;97066.97;10268219;28;20062;-52
2023/06/11 09:50:21;;;;;;;10.15;6.80;;;;;;;26.63;49.29;97058.81;10244156;28;20533;-51
2023/06/11 09:55:21;;;;;;;10.00;6.38;;;;;;;26.81;48.17;97069.84;10245591;28;20074;-50
2023/06/11 10:00:20;;;;;;;10.10;6.00;;;;;;;26.82;45.84;97075.06;10244129;28;20503;-52
2023/06/11 10:05:20;;;;;;;8.65;6.20;;;;;;;26.87;47.37;97059.63;10242245;28;20077;-51
2023/06/11 10:10:22;;;;;;;10.00;6.93;;;;;;;27.33;47.09;97058.63;10243588;28;20081;-52
2023/06/11 10:15:23;;;;;;;7.57;5.65;;;;;;;27.36;45.69;97054.88;10244718;28;20069;-52
2023/06/11 10:20:35;;;;;;;9.80;6.20;;;;;;;27.14;45.94;97053.06;10244503;28;20077;-50
2023/06/11 10:25:39;;;;;;;9.75;6.90;;;;;;;26.78;44.84;97041.66;10239328;28;20476;-53
2023/06/11 10:30:38;;;;;;;9.15;6.60;;;;;;;26.98;45.68;97038.31;10251928;28;20089;-52
2023/06/11 10:35:46;;;;;;;8.77;6.63;;;;;;;27.17;44.97;97027.03;10253962;28;20401;-53
2023/06/11 10:40:47;;;;;;;10.60;6.53;;;;;;;26.62;43.67;97012.72;10273507;28;20604;-52
2023/06/11 10:46:01;;;;;;;8.73;6.07;;;;;;;26.81;43.69;97030.75;10247021;28;20100;-52
2023/06/11 10:51:01;;;;;;;8.90;5.63;;;;;;;26.10;44.26;97052.13;10247949;28;20588;-52
2023/06/11 10:56:02;;;;;;;8.60;5.55;;;;;;;25.91;44.08;97034.03;10247082;28;20129;-52
2023/06/11 11:01:03;;;;;;;10.50;6.43;;;;;;;26.19;44.57;97052.41;10248986;28;20137;-51
2023/06/11 11:06:03;;;;;;;8.82;6.63;;;;;;;26.40;45.54;97058.78;10248154;28;20149;-49
2023/06/11 11:11:02;;;;;;;9.25;5.93;;;;;;;26.76;46.79;97063.06;10248152;28;20072;-52
2023/06/11 11:16:02;;;;;;;8.95;5.50;;;;;;;26.66;44.65;97063.91;10266301;28;20590;-51
2023/06/11 11:21:01;;;;;;;9.30;5.13;;;;;;;26.62;43.73;97068.63;10247640;28;20074;-48
2023/06/11 11:26:00;;;;;;;6.53;4.70;;;;;;;26.45;44.09;97074.41;10247421;28;20165;-51
2023/06/11 11:31:00;;;;;;;8.55;4.88;;;;;;;25.97;44.42;97087.72;10247364;28;20112;-53
2023/06/11 11:36:02;;;;;;;6.60;4.07;;;;;;;25.76;44.43;97079.50;10246691;28;20185;-49
2023/06/11 11:41:02;;;;;;;7.30;4.15;;;;;;;25.93;44.68;97073.81;10246574;28;20117;-49
2023/06/11 11:46:01;;;;;;;7.38;4.10;;;;;;;25.99;43.48;97078.66;10244210;28;20516;-52
2023/06/11 11:51:06;;;;;;;4.18;3.42;;;;;;;25.98;43.78;97022.97;10247104;28;20620;-51
2023/06/11 11:56:05;;;;;;;6.07;3.58;;;;;;;26.75;42.98;97042.75;10247091;28;20137;-52
2023/06/11 12:01:08;;;;;;;5.05;3.92;;;;;;;27.18;42.14;97038.53;10245221;28;20109;-50
2023/06/11 12:06:08;;;;;;;5.70;3.42;;;;;;;27.48;41.61;97029.94;10246486;28;20059;-51
2023/06/11 12:11:07;;;;;;;6.15;3.30;;;;;;;27.65;40.27;97031.22;10246437;28;20136;-51
2023/06/11 12:16:06;;;;;;;3.97;3.25;;;;;;;27.99;39.41;97026.59;10245259;28;20121;-52
2023/06/11 12:21:05;;;;;;;5.07;3.42;;;;;;;28.29;38.32;97026.84;10243901;28;20129;-49
2023/06/11 12:26:04;;;;;;;7.57;3.28;;;;;;;28.99;37.58;97028.84;10245753;28;20076;-50
2023/06/11 12:31:03;;;;;;;6.63;3.63;;;;;;;29.46;37.74;97037.16;10245389;28;20030;-51
2023/06/11 12:36:02;;;;;;;4.97;3.53;;;;;;;29.95;36.31;97031.03;10243854;28;20052;-51
2023/06/11 12:41:01;;;;;;;5.72;3.65;;;;;;;30.16;35.42;97029.06;10245337;28;20454;-51
2023/06/11 12:46:01;;;;;;;6.82;3.75;;;;;;;30.03;33.73;97016.00;10245139;28;20113;-49
2023/06/11 12:51:00;;;;;;;5.93;3.55;;;;;;;29.60;33.43;97019.03;10243595;28;20525;-51
2023/06/11 12:55:59;;;;;;;4.93;3.50;;;;;;;28.66;33.61;97017.41;10267529;28;20520;-51
2023/06/11 13:00:58;;;;;;;6.00;3.35;;;;;;;28.24;34.91;97011.22;10242074;28;20134;-50
2023/06/11 13:05:57;;;;;;;3.97;3.33;;;;;;;28.24;38.06;96936.53;10244236;28;20034;-48
2023/06/11 13:10:58;;;;;;;4.25;3.25;;;;;;;29.09;36.17;97003.00;10244009;28;20093;-50
2023/06/11 13:15:57;;;;;;;4.03;3.40;;;;;;;29.08;35.13;96987.09;10242236;28;20133;-52
2023/06/11 13:20:58;;;;;;;4.07;3.28;;;;;;;28.87;35.36;97008.50;10230412;28;20044;-53
2023/06/11 13:25:58;;;;;;;6.50;3.90;;;;;;;28.95;36.20;97011.38;10230019;28;20162;-53
2023/06/11 13:30:59;;;;;;;6.45;3.72;;;;;;;28.56;36.20;97010.31;10240684;28;20176;-53
2023/06/11 13:35:58;;;;;;;5.43;3.70;;;;;;;27.85;35.44;97024.25;10241813;28;20142;-51
2023/06/11 13:40:57;;;;;;;5.30;3.50;;;;;;;27.80;35.85;97021.97;10241486;28;20501;-51
2023/06/11 13:45:58;;;;;;;4.32;3.20;;;;;;;27.70;36.52;96978.34;10242206;28;20138;-52
2023/06/11 13:50:57;;;;;;;5.28;3.75;;;;;;;28.13;38.31;97019.31;10240800;28;20137;-52
2023/06/11 13:55:56;;;;;;;7.18;3.83;;;;;;;27.79;38.46;97017.59;10240535;28;20077;-51
2023/06/11 14:00:55;;;;;;;6.25;3.90;;;;;;;27.88;38.08;96997.31;10239911;28;20768;-51
2023/06/11 14:05:55;;;;;;;8.35;3.78;;;;;;;28.09;38.50;97000.03;10248686;28;20124;-53
2023/06/11 14:10:54;;;;;;;4.65;3.42;;;;;;;28.40;37.63;96989.41;10248659;28;20323;-49
2023/06/11 14:15:53;;;;;;;10.07;4.80;;;;;;;28.64;38.77;97005.13;10248424;28;20037;-51
2023/06/11 14:20:52;;;;;;;5.57;4.70;;;;;;;28.55;38.57;96998.78;10249394;28;20668;-50
2023/06/11 14:25:50;;;;;;;8.10;4.68;;;;;;;28.07;40.03;96999.31;10249270;28;20038;-51
2023/06/11 14:30:52;;;;;;;6.53;4.63;;;;;;;28.13;40.83;96992.63;10245080;28;20516;-51
2023/06/11 14:35:51;;;;;;;6.38;4.18;;;;;;;28.24;39.03;96982.75;10248121;28;20152;-52
2023/06/11 14:40:50;;;;;;;7.03;4.88;;;;;;;28.12;40.26;97009.59;10249975;28;20085;-49
2023/06/11 14:45:49;;;;;;;6.70;4.00;;;;;;;28.49;39.51;97007.31;10255334;28;20053;-51
2023/06/11 14:50:51;;;;;;;6.60;4.47;;;;;;;28.43;37.65;97002.50;10268263;28;20483;-51
2023/06/11 14:55:50;;;;;;;6.20;4.15;;;;;;;28.37;37.52;96992.38;10249125;28;20128;-50
2023/06/11 15:00:49;;;;;;;5.05;4.03;;;;;;;28.13;38.15;96993.47;10251734;28;20071;-50
2023/06/11 15:05:48;;;;;;;4.57;4.00;;;;;;;27.54;38.47;96986.81;10232240;28;20069;-52
2023/06/11 15:10:47;;;;;;;5.32;4.22;;;;;;;27.27;38.87;96992.53;10274618;28;20038;-50
2023/06/11 15:15:46;;;;;;;7.55;4.55;;;;;;;26.77;40.02;96992.06;10251743;28;20541;-52
2023/06/11 15:20:45;;;;;;;5.80;3.97;;;;;;;26.60;40.88;96997.84;10249844;28;20077;-51
2023/06/11 15:25:44;;;;;;;7.00;4.18;;;;;;;26.33;41.22;96991.06;10250119;28;20038;-52
2023/06/11 15:30:44;;;;;;;4.63;3.75;;;;;;;25.92;40.69;97001.16;10249597;28;20049;-50
2023/06/11 15:35:43;;;;;;;5.45;3.85;;;;;;;25.99;41.79;96996.25;10250481;28;20116;-52
2023/06/11 15:40:42;;;;;;;5.65;3.65;;;;;;;25.72;43.83;97008.00;10248268;28;20054;-51
2023/06/11 15:45:41;;;;;;;6.82;4.55;;;;;;;25.29;45.52;97021.75;10243272;28;20042;-50
2023/06/11 15:50:40;;;;;;;4.97;3.53;;;;;;;24.94;45.19;97015.44;10245081;28;20049;-51
2023/06/11 15:55:40;;;;;;;5.10;3.85;;;;;;;24.99;45.17;97018.59;10244006;28;20133;-51
2023/06/11 16:00:39;;;;;;;4.82;4.03;;;;;;;24.88;45.84;97025.53;10245804;28;20373;-51
2023/06/11 16:05:38;;;;;;;6.43;4.20;;;;;;;24.70;46.61;97022.34;10245775;28;20034;-52
2023/06/11 16:10:37;;;;;;;7.53;4.57;;;;;;;24.33;47.79;97029.34;10246844;28;20121;-52
2023/06/11 16:15:37;;;;;;;5.50;4.57;;;;;;;23.83;48.02;96983.22;10244935;28;20040;-50
2023/06/11 16:20:36;;;;;;;6.15;4.38;;;;;;;23.93;47.52;97026.69;10243383;28;20133;-50
2023/06/11 16:25:35;;;;;;;5.72;4.47;;;;;;;23.86;47.74;97028.03;10244167;28;20050;-49
2023/06/11 16:30:34;;;;;;;5.57;4.28;;;;;;;23.93;48.99;97032.00;10245408;28;20034;-51
2023/06/11 16:35:33;;;;;;;6.82;4.40;;;;;;;24.10;49.30;97030.00;10243121;28;20133;-52
2023/06/11 16:40:32;;;;;;;6.10;4.60;;;;;;;24.24;49.33;97038.78;10242302;28;20124;-51
2023/06/11 16:45:31;;;;;;;6.38;4.57;;;;;;;24.31;50.18;97041.88;10244074;28;20546;-51
2023/06/11 16:50:30;;;;;;;7.53;4.32;;;;;;;24.31;50.59;97047.19;10243598;28;20072;-49
2023/06/11 16:55:29;;;;;;;5.75;4.50;;;;;;;24.48;50.52;97052.16;10241070;28;20842;-51
2023/06/11 17:00:29;;;;;;;5.85;4.10;;;;;;;24.54;50.77;97042.06;10231494;28;20766;-51
2023/06/11 17:05:28;;;;;;;9.43;4.50;;;;;;;24.56;51.30;97043.66;10243506;28;20081;-51
2023/06/11 17:10:28;;;;;;;6.57;4.00;;;;;;;24.62;51.65;97035.28;10242539;28;20050;-51
2023/06/11 17:15:27;;;;;;;6.53;4.53;;;;;;;24.72;52.37;97043.47;10241935;28;20529;-49
2023/06/11 17:20:26;;;;;;;7.10;4.80;;;;;;;24.72;52.80;97045.28;10242825;28;20516;-50
2023/06/11 17:25:25;;;;;;;5.88;4.88;;;;;;;24.70;53.17;97050.69;10243758;28;20125;-51
2023/06/11 17:30:24;;;;;;;6.75;4.70;;;;;;;24.62;53.52;97066.28;10237927;28;20022;-50
2023/06/11 17:35:23;;;;;;;9.15;5.90;;;;;;;24.47;53.94;97068.16;10241608;28;20907;-49
2023/06/11 17:40:27;;;;;;;6.65;5.13;;;;;;;24.25;54.63;97074.94;10242810;28;20034;-51
2023/06/11 17:45:28;;;;;;;8.15;5.25;;;;;;;24.01;54.62;97071.25;10240994;28;20081;-51
2023/06/11 17:50:27;;;;;;;11.57;5.72;;;;;;;23.86;54.55;97070.44;10240920;28;20133;-49
2023/06/11 17:55:26;;;;;;;9.32;5.68;;;;;;;23.68;55.05;97075.16;10240822;28;20061;-51
2023/06/11 18:00:25;;;;;;;11.10;6.13;;;;;;;23.49;56.11;97085.22;10241104;28;20138;-51
2023/06/11 18:05:25;;;;;;;6.20;4.60;;;;;;;23.36;54.28;97090.44;10241113;28;20097;-50
2023/06/11 18:10:24;;;;;;;5.88;4.80;;;;;;;23.23;53.48;97088.56;10253985;28;20145;-52
2023/06/11 18:15:23;;;;;;;6.63;4.05;;;;;;;23.07;51.15;97082.53;10246422;28;20038;-52
2023/06/11 18:20:22;;;;;;;5.10;3.60;;;;;;;22.90;49.33;97074.75;10241765;28;20038;-49
2023/06/11 18:25:21;;;;;;;4.65;3.75;;;;;;;22.60;48.84;97039.50;10242958;28;20169;-50
2023/06/11 18:30:21;;;;;;;8.10;4.28;;;;;;;22.71;50.06;97072.38;10238088;28;20165;-50
2023/06/11 18:35:19;;;;;;;8.57;4.65;;;;;;;22.67;51.90;97081.41;10241629;28;20549;-52
2023/06/11 18:40:18;;;;;;;7.45;5.15;;;;;;;22.56;54.17;97088.22;10239985;28;20034;-52
2023/06/11 18:45:17;;;;;;;7.80;5.15;;;;;;;22.46;56.00;97091.50;10241181;28;20425;-51
2023/06/11 18:50:17;;;;;;;8.07;5.80;;;;;;;22.37;57.50;97098.19;10246198;28;20046;-52
2023/06/11 18:55:19;;;;;;;8.82;5.35;;;;;;;22.28;58.28;97102.22;10248357;28;20069;-52
2023/06/11 19:00:18;;;;;;;10.55;6.13;;;;;;;22.25;59.23;97101.53;10249212;28;20125;-51
2023/06/11 19:05:17;;;;;;;12.73;7.47;;;;;;;21.94;62.39;97109.44;10247765;28;20137;-51
2023/06/11 19:10:16;;;;;;;11.38;6.15;;;;;;;21.59;62.34;97103.50;10246779;28;20023;-48
2023/06/11 19:15:15;;;;;;;10.15;5.90;;;;;;;21.58;59.80;97101.81;10246773;28;20042;-49
2023/06/11 19:20:14;;;;;;;9.43;5.22;;;;;;;21.49;58.65;97087.31;10246361;28;20030;-49
2023/06/11 19:25:13;;;;;;;7.10;4.65;;;;;;;21.58;59.48;97116.78;10248747;28;20409;-51
2023/06/11 19:30:13;;;;;;;10.93;5.30;;;;;;;21.30;60.26;97124.44;10245912;28;20497;-50
2023/06/11 19:35:12;;;;;;;9.18;7.00;;;;;;;21.14;66.18;97134.06;10248222;28;20074;-49
2023/06/11 19:40:14;;;;;;;10.50;6.60;;;;;;;21.13;66.82;97135.03;10244686;28;20058;-51
2023/06/11 19:45:16;;;;;;;8.63;5.88;;;;;;;21.01;67.12;97133.88;10249286;28;20089;-52
2023/06/11 19:50:14;;;;;;;7.70;5.47;;;;;;;20.94;66.54;97137.78;10246558;28;20062;-50
2023/06/11 19:55:17;;;;;;;8.80;5.88;;;;;;;20.96;65.46;97125.38;10249616;28;20064;-51
2023/06/11 20:00:16;;;;;;;9.13;5.70;;;;;;;20.88;65.64;97122.28;10247199;28;20121;-49
2023/06/11 20:05:15;;;;;;;8.32;5.35;;;;;;;20.83;65.60;97134.84;10250422;28;20070;-50
2023/06/11 20:10:14;;;;;;;8.05;5.35;;;;;;;20.87;65.00;97131.97;10246679;28;20024;-52
2023/06/11 20:15:13;;;;;;;7.20;5.35;;;;;;;20.84;64.73;97136.53;10248371;28;20074;-50
2023/06/11 20:20:12;;;;;;;8.15;5.40;;;;;;;20.83;64.59;97140.13;10246485;28;20061;-49
2023/06/11 20:25:11;;;;;;;9.20;5.60;;;;;;;20.87;64.63;97144.31;10261413;28;20482;-49
2023/06/11 20:30:11;;;;;;;7.40;5.07;;;;;;;20.79;64.45;97149.13;10247721;28;20077;-48
2023/06/11 20:35:10;;;;;;;7.50;5.40;;;;;;;20.54;64.16;97102.94;10247237;28;20065;-51
2023/06/11 20:40:09;;;;;;;9.93;5.10;;;;;;;20.71;64.37;97137.19;10246358;28;20038;-51
2023/06/11 20:45:08;;;;;;;10.27;5.78;;;;;;;20.68;64.06;97145.28;10245576;28;20490;-50
2023/06/11 20:50:08;;;;;;;12.75;5.65;;;;;;;20.57;65.78;97150.22;10241910;28;20565;-51
2023/06/11 20:55:07;;;;;;;8.50;5.40;;;;;;;20.10;70.91;97144.69;10243408;28;20149;-51
2023/06/11 21:00:08;;;;;;;11.60;5.95;;;;;;;19.99;70.28;97147.81;10248522;28;20121;-50
2023/06/11 21:05:07;;;;;;;11.82;5.50;;;;;;;19.98;70.85;97149.63;10244004;28;20125;-50
2023/06/11 21:10:06;;;;;;;8.95;6.10;;;;;;;19.86;71.35;97143.16;10241268;28;20149;-49
2023/06/11 21:15:06;;;;;;;8.60;6.50;;;;;;;19.80;72.52;97140.81;10241861;28;20113;-52
2023/06/11 21:20:06;;;;;;;7.45;5.93;;;;;;;19.84;73.94;97146.78;10240871;28;20117;-51
2023/06/11 21:25:05;;;;;;;8.60;6.50;;;;;;;19.66;75.55;97146.72;10242668;28;20117;-48
2023/06/11 21:30:05;;;;;;;8.27;5.97;;;;;;;19.41;76.15;97125.09;10242881;28;20557;-50
2023/06/11 21:35:05;;;;;;;8.80;5.95;;;;;;;19.44;76.28;97117.06;10243772;28;20501;-50
2023/06/11 21:40:05;;;;;;;7.70;5.82;;;;;;;19.45;75.60;97111.72;10242696;28;20227;-51
2023/06/11 21:45:04;;;;;;;8.75;5.72;;;;;;;19.53;74.57;97108.72;10242450;28;20081;-48
2023/06/11 21:50:05;;;;;;;10.60;5.63;;;;;;;19.52;74.33;97114.91;10241096;28;20058;-51
2023/06/11 21:55:05;;;;;;;9.02;6.07;;;;;;;19.49;74.04;97104.53;10242430;28;20145;-49
2023/06/11 22:00:10;;;;;;;11.65;6.80;;;;;;;19.45;73.65;97095.06;10239091;28;20118;-49
2023/06/11 22:05:12;;;;;;;10.75;7.75;;;;;;;19.23;74.04;97075.03;10241566;28;20179;-51
2023/06/11 22:10:11;;;;;;;8.82;7.03;;;;;;;19.24;75.03;97096.94;10237547;28;20557;-49
2023/06/11 22:15:12;;;;;;;9.48;6.75;;;;;;;18.99;75.40;97063.00;10241674;28;20107;-50
2023/06/11 22:20:12;;;;;;;10.48;8.18;;;;;;;18.93;76.99;97068.56;10240801;28;20573;-51
2023/06/11 22:25:12;;;;;;;10.85;7.70;;;;;;;18.99;77.03;97086.69;10246791;28;20121;-51
2023/06/11 22:30:12;;;;;;;9.75;7.00;;;;;;;18.90;77.74;97076.56;10248680;28;20100;-51
2023/06/11 22:35:11;;;;;;;10.10;7.18;;;;;;;18.83;79.12;97086.53;10251065;28;20073;-49
2023/06/11 22:40:10;;;;;;;11.18;7.93;;;;;;;18.54;82.18;97091.25;10246990;28;20128;-51
2023/06/11 22:45:09;;;;;;;10.98;8.00;;;;;;;18.41;82.69;97082.22;10252834;28;20073;-51
2023/06/11 22:50:09;;;;;;;11.98;8.25;;;;;;;18.28;82.83;97086.28;10252670;28;20084;-49
2023/06/11 22:55:09;;;;;;;8.80;7.32;;;;;;;18.23;82.53;97085.63;10254206;28;20061;-52
2023/06/11 23:00:09;;;;;;;10.73;7.85;;;;;;;18.18;82.65;97078.78;10252451;28;20070;-51
2023/06/11 23:05:09;;;;;;;8.63;7.50;;;;;;;17.96;82.45;97065.72;10252757;28;20086;-50